Time;durP1;ratioP1;P1;durP2;ratioP2;P2;SDS_P1;SDS_P2;PMS_P1;PMS_P2;Temp;Humidity;BMP_temperature;BMP_pressure;BME280_temperature;BME280_humidity;BME280_pressure;Samples;Min_cycle;Max_cycle;Signal;HPM_P1;HPM_P2
2023/11/08 00:01:52;;;;;;;1.33;0.50;;;9.80;99.90;;;;;;4996341;28;20117;-64
2023/11/08 00:04:19;;;;;;;1.67;0.70;;;9.80;99.90;;;;;;5002134;28;20659;-64
2023/11/08 00:06:45;;;;;;;1.77;0.63;;;9.70;99.90;;;;;;4995853;28;20045;-64
2023/11/08 00:09:12;;;;;;;1.90;0.55;;;9.70;99.90;;;;;;5002459;28;20040;-64
2023/11/08 00:11:39;;;;;;;3.00;0.77;;;9.70;99.90;;;;;;4995911;28;20414;-64
2023/11/08 00:14:05;;;;;;;3.42;0.85;;;9.60;99.90;;;;;;5002149;28;20048;-64
2023/11/08 00:16:31;;;;;;;0.75;0.50;;;9.60;99.90;;;;;;4996653;28;20100;-64
2023/11/08 00:18:57;;;;;;;2.00;0.73;;;9.60;99.90;;;;;;5001457;28;20041;-64
2023/11/08 00:21:24;;;;;;;2.72;1.13;;;9.60;99.90;;;;;;4997655;28;20022;-64
2023/11/08 00:23:51;;;;;;;2.40;0.60;;;9.50;99.90;;;;;;5000372;28;20034;-64
2023/11/08 00:26:17;;;;;;;0.85;0.43;;;9.50;99.90;;;;;;4999104;28;20645;-64
2023/11/08 00:28:47;;;;;;;1.30;0.73;;;9.50;99.90;;;;;;5001496;28;20034;-64
2023/11/08 00:31:13;;;;;;;0.93;0.90;;;9.40;99.90;;;;;;5003078;28;20080;-64
2023/11/08 00:33:38;;;;;;;0.63;0.63;;;9.30;99.90;;;;;;4998965;28;20030;-64
2023/11/08 00:36:05;;;;;;;0.60;0.60;;;9.30;99.90;;;;;;4999411;28;20033;-64
2023/11/08 00:38:31;;;;;;;0.70;0.55;;;9.30;99.90;;;;;;5000163;28;20040;-64
2023/11/08 00:40:57;;;;;;;1.10;0.60;;;9.30;99.90;;;;;;4998588;28;20034;-64
2023/11/08 00:43:23;;;;;;;1.33;0.70;;;9.30;99.90;;;;;;4997420;28;20545;-64
2023/11/08 00:45:51;;;;;;;1.98;0.52;;;9.30;99.90;;;;;;4996865;28;20150;-64
2023/11/08 00:48:17;;;;;;;1.10;0.70;;;9.30;99.90;;;;;;4997213;28;20030;-64
2023/11/08 00:50:44;;;;;;;0.47;0.47;;;9.30;99.90;;;;;;4998414;28;20030;-64
2023/11/08 00:53:15;;;;;;;1.63;0.70;;;9.20;99.90;;;;;;4997269;28;20145;-64
2023/11/08 00:55:41;;;;;;;4.57;0.80;;;9.20;99.90;;;;;;4997052;28;20168;-64
2023/11/08 00:58:08;;;;;;;0.70;0.70;;;9.20;99.90;;;;;;4997403;28;20034;-64
2023/11/08 01:00:35;;;;;;;0.52;0.52;;;9.20;99.90;;;;;;4999348;28;20026;-64
2023/11/08 01:03:01;;;;;;;1.75;0.70;;;9.30;99.90;;;;;;5011403;28;20510;-64
2023/11/08 01:05:27;;;;;;;0.82;0.70;;;9.30;99.90;;;;;;5001913;28;20798;-64
2023/11/08 01:07:53;;;;;;;2.15;0.75;;;9.30;99.90;;;;;;4994277;28;20034;-64
2023/11/08 01:10:21;;;;;;;2.17;0.70;;;9.30;99.90;;;;;;5001053;28;20038;-64
2023/11/08 01:12:50;;;;;;;1.02;0.73;;;9.30;99.90;;;;;;4994491;28;20113;-64
2023/11/08 01:15:17;;;;;;;3.95;0.90;;;9.10;99.90;;;;;;5001417;28;20482;-64
2023/11/08 01:17:43;;;;;;;1.23;0.95;;;9.10;99.90;;;;;;4994554;28;20074;-64
2023/11/08 01:20:10;;;;;;;2.65;0.93;;;9.00;99.90;;;;;;5001291;28;20046;-64
2023/11/08 01:22:36;;;;;;;0.80;0.80;;;9.00;99.90;;;;;;4995137;28;20121;-64
2023/11/08 01:25:03;;;;;;;0.98;0.70;;;9.00;99.90;;;;;;5000023;28;20033;-64
2023/11/08 01:27:28;;;;;;;1.48;1.10;;;8.90;99.90;;;;;;5030915;28;20026;-64
2023/11/08 01:29:54;;;;;;;1.90;1.00;;;8.90;99.90;;;;;;5004329;28;20034;-64
2023/11/08 01:32:20;;;;;;;2.75;1.40;;;8.90;99.90;;;;;;5003591;28;20064;-64
2023/11/08 01:34:46;;;;;;;1.05;0.90;;;8.80;99.90;;;;;;5002880;28;20033;-64
2023/11/08 01:37:12;;;;;;;1.45;1.10;;;8.70;99.90;;;;;;5005248;28;20080;-64
2023/11/08 01:39:37;;;;;;;2.25;0.70;;;8.70;99.90;;;;;;5019608;28;20073;-64
2023/11/08 01:42:03;;;;;;;2.92;1.08;;;8.70;99.90;;;;;;5000104;28;20026;-64
2023/11/08 01:44:29;;;;;;;3.25;1.35;;;8.80;99.90;;;;;;5002767;28;20076;-64
2023/11/08 01:46:55;;;;;;;1.15;0.95;;;8.60;99.90;;;;;;4998402;28;20105;-64
2023/11/08 01:49:26;;;;;;;2.60;1.30;;;8.60;99.90;;;;;;5002527;28;20112;-64
2023/11/08 01:51:53;;;;;;;1.70;1.17;;;8.50;99.90;;;;;;5000673;28;20038;-64
2023/11/08 01:54:19;;;;;;;2.10;1.13;;;8.50;99.90;;;;;;5034542;28;20497;-64
2023/11/08 01:56:49;;;;;;;3.50;1.20;;;8.50;99.90;;;;;;5032132;28;20092;-64
2023/11/08 01:59:18;;;;;;;1.90;1.20;;;8.50;99.90;;;;;;5034429;28;20145;-64
2023/11/08 02:01:45;;;;;;;3.67;1.10;;;8.50;99.90;;;;;;4999020;28;20022;-64
2023/11/08 02:04:12;;;;;;;4.13;1.08;;;8.60;99.90;;;;;;5005860;28;20025;-64
2023/11/08 02:06:38;;;;;;;2.08;1.45;;;8.60;99.90;;;;;;5001341;28;20029;-64
2023/11/08 02:09:05;;;;;;;1.58;1.00;;;8.70;99.90;;;;;;5002528;28;20679;-64
2023/11/08 02:11:33;;;;;;;3.00;0.93;;;8.70;99.90;;;;;;5033693;28;20779;-63
2023/11/08 02:13:59;;;;;;;1.10;0.98;;;8.80;99.90;;;;;;5001520;28;20038;-64
2023/11/08 02:16:25;;;;;;;1.15;0.88;;;8.80;99.90;;;;;;5001311;28;20137;-64
2023/11/08 02:18:50;;;;;;;1.13;0.82;;;8.80;99.90;;;;;;5015527;28;20072;-64
2023/11/08 02:21:17;;;;;;;1.90;1.20;;;8.90;99.90;;;;;;5003593;28;20065;-63
2023/11/08 02:23:43;;;;;;;3.75;1.10;;;8.80;99.90;;;;;;5031101;28;20049;-64
2023/11/08 02:26:09;;;;;;;2.25;1.23;;;8.80;99.90;;;;;;5003400;28;20701;-64
2023/11/08 02:28:36;;;;;;;1.55;0.80;;;8.80;99.90;;;;;;5029674;28;20057;-64
2023/11/08 02:31:03;;;;;;;2.00;0.82;;;8.90;99.90;;;;;;5003733;28;20034;-64
2023/11/08 02:33:29;;;;;;;0.93;0.70;;;8.90;99.90;;;;;;4997784;28;20721;-64
2023/11/08 02:35:57;;;;;;;1.50;0.82;;;8.90;99.90;;;;;;5000857;28;20040;-64
2023/11/08 02:38:23;;;;;;;1.40;1.10;;;8.90;99.90;;;;;;4997390;28;20088;-64
2023/11/08 02:40:49;;;;;;;2.92;0.77;;;8.80;99.90;;;;;;4999797;28;20042;-64
2023/11/08 02:43:16;;;;;;;2.45;1.00;;;8.80;99.90;;;;;;4998036;28;20036;-65
2023/11/08 02:45:42;;;;;;;0.98;0.80;;;8.90;99.90;;;;;;4999034;28;20113;-64
2023/11/08 02:48:08;;;;;;;1.52;0.80;;;9.00;99.90;;;;;;5000620;28;20534;-64
2023/11/08 02:50:36;;;;;;;8.02;1.35;;;8.90;99.90;;;;;;5000674;28;20041;-64
2023/11/08 02:53:02;;;;;;;3.83;0.88;;;8.80;99.90;;;;;;4999499;28;20041;-64
2023/11/08 02:55:28;;;;;;;1.15;0.80;;;8.90;99.90;;;;;;5001676;28;20038;-64
2023/11/08 02:57:54;;;;;;;1.05;0.82;;;8.80;99.90;;;;;;4997244;28;20046;-64
2023/11/08 03:00:21;;;;;;;0.90;0.90;;;8.80;99.90;;;;;;5021852;28;20971;-64
2023/11/08 03:02:47;;;;;;;2.25;0.90;;;8.80;99.90;;;;;;4996819;28;20026;-64
2023/11/08 03:05:20;;;;;;;3.03;1.10;;;8.70;99.90;;;;;;5001600;28;20030;-65
2023/11/08 03:07:46;;;;;;;2.08;0.95;;;8.60;99.90;;;;;;4998548;28;20033;-64
2023/11/08 03:10:17;;;;;;;2.83;0.93;;;8.60;99.90;;;;;;5000024;28;20041;-64
2023/11/08 03:12:44;;;;;;;0.80;0.80;;;8.60;99.90;;;;;;4998149;28;20034;-64
2023/11/08 03:15:11;;;;;;;3.33;2.85;;;8.60;99.90;;;;;;4998596;28;20026;-64
2023/11/08 03:17:40;;;;;;;2.28;1.13;;;8.50;99.90;;;;;;4999172;28;20032;-64
2023/11/08 03:20:08;;;;;;;1.08;0.80;;;8.50;99.90;;;;;;5001162;28;20029;-64
2023/11/08 03:22:35;;;;;;;1.20;1.00;;;8.50;99.90;;;;;;4999499;28;20402;-64
2023/11/08 03:25:04;;;;;;;2.72;0.70;;;8.60;99.90;;;;;;5002525;28;20058;-64
2023/11/08 03:27:30;;;;;;;1.73;0.98;;;8.60;99.90;;;;;;4998798;28;20076;-64
2023/11/08 03:29:56;;;;;;;2.45;0.88;;;8.60;99.90;;;;;;4999866;28;20082;-64
2023/11/08 03:32:22;;;;;;;3.25;0.90;;;8.60;99.90;;;;;;5003292;28;20030;-64
2023/11/08 03:34:48;;;;;;;2.85;0.88;;;8.70;99.90;;;;;;4998608;28;20053;-64
2023/11/08 03:37:14;;;;;;;1.85;1.00;;;8.60;99.90;;;;;;5002074;28;20100;-64
2023/11/08 03:39:39;;;;;;;2.35;1.10;;;8.50;99.90;;;;;;5001756;28;20571;-64
2023/11/08 03:42:05;;;;;;;1.85;1.10;;;8.40;99.90;;;;;;5001696;28;20391;-64
2023/11/08 03:44:31;;;;;;;3.08;1.15;;;8.30;99.90;;;;;;4998776;28;20100;-64
2023/11/08 03:46:57;;;;;;;2.60;0.95;;;8.30;99.90;;;;;;5001257;28;20033;-64
2023/11/08 03:49:23;;;;;;;1.90;0.85;;;8.30;99.90;;;;;;4996871;28;20041;-64
2023/11/08 03:51:49;;;;;;;2.20;0.80;;;8.40;99.90;;;;;;5000116;28;20044;-64
2023/11/08 03:54:14;;;;;;;3.85;1.02;;;8.50;99.90;;;;;;4998117;28;20040;-63
2023/11/08 03:56:40;;;;;;;2.78;1.00;;;8.60;99.90;;;;;;4997837;28;20042;-64
2023/11/08 03:59:06;;;;;;;2.67;1.17;;;8.60;99.90;;;;;;4999023;28;20033;-64
2023/11/08 04:01:32;;;;;;;9.90;1.50;;;8.60;99.90;;;;;;4999614;28;20084;-64
2023/11/08 04:03:57;;;;;;;4.18;1.30;;;8.60;99.90;;;;;;4997456;28;20469;-63
2023/11/08 04:06:23;;;;;;;1.88;1.00;;;8.50;99.90;;;;;;5000308;28;20030;-64
2023/11/08 04:08:49;;;;;;;4.20;1.20;;;8.50;99.90;;;;;;4996815;28;20030;-63
2023/11/08 04:11:15;;;;;;;2.58;1.20;;;8.40;99.90;;;;;;5000206;28;20443;-64
2023/11/08 04:13:40;;;;;;;8.02;1.30;;;8.30;99.90;;;;;;4996975;28;20046;-64
2023/11/08 04:16:06;;;;;;;3.53;1.60;;;8.20;99.90;;;;;;5000093;28;20037;-64
2023/11/08 04:18:35;;;;;;;4.03;1.25;;;8.20;99.90;;;;;;5013492;28;20025;-64
2023/11/08 04:21:03;;;;;;;2.63;1.52;;;8.10;99.90;;;;;;4999204;28;20145;-64
2023/11/08 04:23:29;;;;;;;2.10;1.05;;;8.00;99.90;;;;;;5000256;28;20037;-64
2023/11/08 04:25:55;;;;;;;1.67;0.93;;;8.10;99.90;;;;;;5000393;28;20026;-64
2023/11/08 04:28:21;;;;;;;2.97;1.17;;;8.30;99.90;;;;;;5000237;28;20036;-64
2023/11/08 04:30:47;;;;;;;6.05;1.45;;;8.40;99.90;;;;;;4998489;28;20402;-64
2023/11/08 04:33:12;;;;;;;1.88;1.20;;;8.50;99.90;;;;;;5000417;28;20030;-64
2023/11/08 04:35:38;;;;;;;2.63;1.55;;;8.60;99.90;;;;;;4997584;28;20029;-64
2023/11/08 04:38:05;;;;;;;2.55;1.00;;;8.70;99.90;;;;;;5000041;28;20068;-64
2023/11/08 04:40:31;;;;;;;6.50;1.45;;;8.80;99.90;;;;;;4998051;28;20021;-64
2023/11/08 04:42:56;;;;;;;4.10;1.08;;;8.80;99.90;;;;;;4999335;28;20031;-64
2023/11/08 04:45:22;;;;;;;1.33;1.00;;;8.90;99.90;;;;;;4997829;28;20486;-64
2023/11/08 04:47:48;;;;;;;1.42;0.95;;;8.80;99.90;;;;;;4999528;28;20070;-64
2023/11/08 04:50:14;;;;;;;3.53;1.00;;;8.80;99.90;;;;;;4997872;28;20033;-63
2023/11/08 04:52:40;;;;;;;2.15;0.90;;;8.80;99.90;;;;;;4999747;28;20079;-64
2023/11/08 04:55:06;;;;;;;2.58;1.25;;;8.90;99.90;;;;;;4997784;28;20026;-64
2023/11/08 04:57:32;;;;;;;3.92;1.40;;;8.90;99.90;;;;;;5001291;28;20104;-64
2023/11/08 04:59:57;;;;;;;3.28;1.10;;;9.00;99.90;;;;;;4996704;28;20034;-64
2023/11/08 05:02:23;;;;;;;3.20;1.17;;;8.90;99.90;;;;;;5002383;28;20772;-64
2023/11/08 05:04:49;;;;;;;2.25;1.08;;;8.90;99.90;;;;;;4999521;28;20475;-64
2023/11/08 05:07:17;;;;;;;3.05;1.00;;;8.90;99.90;;;;;;5006327;28;20034;-64
2023/11/08 05:09:43;;;;;;;1.90;1.05;;;8.90;99.90;;;;;;4999624;28;20487;-63
2023/11/08 05:12:12;;;;;;;1.73;1.02;;;8.90;99.90;;;;;;5006040;28;20041;-64
2023/11/08 05:14:38;;;;;;;6.20;0.80;;;8.80;99.90;;;;;;4999998;28;20085;-64
2023/11/08 05:17:04;;;;;;;4.30;1.20;;;8.90;99.90;;;;;;5005328;28;20490;-64
2023/11/08 05:19:31;;;;;;;2.63;1.00;;;8.90;99.90;;;;;;5001219;28;20030;-64
2023/11/08 05:21:57;;;;;;;3.95;1.25;;;9.00;99.90;;;;;;5004686;28;20410;-64
2023/11/08 05:24:23;;;;;;;6.95;1.20;;;9.00;99.90;;;;;;5002016;28;20025;-64
2023/11/08 05:26:50;;;;;;;2.92;1.15;;;8.90;99.90;;;;;;5000478;28;20901;-64
2023/11/08 05:29:18;;;;;;;5.95;1.73;;;8.80;99.90;;;;;;5005090;28;20624;-64
2023/11/08 05:31:44;;;;;;;2.95;1.00;;;8.80;99.90;;;;;;5004730;28;20065;-64
2023/11/08 05:34:10;;;;;;;2.17;1.08;;;8.80;99.90;;;;;;5002846;28;20056;-64
2023/11/08 05:36:36;;;;;;;3.33;1.30;;;8.80;99.90;;;;;;5000505;28;20037;-64
2023/11/08 05:39:05;;;;;;;4.05;1.35;;;8.90;99.90;;;;;;5002189;28;20643;-64
2023/11/08 05:41:31;;;;;;;2.95;1.13;;;8.90;99.90;;;;;;5000515;28;20037;-64
2023/11/08 05:43:58;;;;;;;1.65;0.98;;;9.00;99.90;;;;;;5001626;28;20085;-64
2023/11/08 05:46:28;;;;;;;4.32;0.80;;;9.10;99.90;;;;;;5000559;28;20561;-64
2023/11/08 05:49:00;;;;;;;2.95;0.80;;;9.00;99.90;;;;;;5001958;28;20045;-63
2023/11/08 05:51:27;;;;;;;2.28;1.25;;;9.00;99.90;;;;;;5001218;28;20116;-64
2023/11/08 05:53:54;;;;;;;2.03;0.98;;;9.10;99.90;;;;;;5002279;28;20122;-63
2023/11/08 05:56:20;;;;;;;3.15;1.10;;;9.20;99.90;;;;;;5000806;28;20639;-64
2023/11/08 05:58:46;;;;;;;1.58;0.80;;;9.10;99.90;;;;;;4999357;28;20053;-64
2023/11/08 06:01:15;;;;;;;16.48;1.52;;;9.20;99.90;;;;;;5005896;28;20029;-64
2023/11/08 06:03:42;;;;;;;4.18;1.13;;;9.20;99.90;;;;;;5002268;28;20036;-64
2023/11/08 06:06:08;;;;;;;3.20;1.30;;;9.10;99.90;;;;;;5002071;28;20576;-64
2023/11/08 06:08:33;;;;;;;2.22;0.73;;;9.00;99.90;;;;;;5001067;28;20101;-64
2023/11/08 06:10:59;;;;;;;1.35;1.00;;;9.00;99.90;;;;;;4999165;28;20152;-64
2023/11/08 06:13:25;;;;;;;4.78;1.10;;;9.00;99.90;;;;;;5003930;28;20048;-63
2023/11/08 06:15:50;;;;;;;4.95;1.55;;;9.20;99.90;;;;;;4998227;28;20121;-64
2023/11/08 06:18:20;;;;;;;2.67;0.82;;;9.20;99.90;;;;;;5001683;28;20207;-64
2023/11/08 06:20:46;;;;;;;2.35;0.90;;;9.20;99.90;;;;;;4997971;28;20031;-64
2023/11/08 06:23:11;;;;;;;6.57;1.10;;;9.20;99.90;;;;;;5004346;28;20025;-64
2023/11/08 06:25:37;;;;;;;10.07;1.25;;;9.20;99.90;;;;;;4998573;28;20110;-64
2023/11/08 06:28:03;;;;;;;5.85;1.50;;;9.30;99.90;;;;;;5003568;28;20034;-63
2023/11/08 06:30:29;;;;;;;3.50;0.90;;;9.30;99.90;;;;;;5002879;28;20465;-64
2023/11/08 06:32:55;;;;;;;6.38;0.90;;;9.40;99.90;;;;;;5003888;28;20403;-63
2023/11/08 06:35:21;;;;;;;2.97;1.45;;;9.40;99.90;;;;;;4988781;28;20104;-63
2023/11/08 06:37:47;;;;;;;6.57;1.00;;;9.50;99.90;;;;;;5001078;28;20025;-63
2023/11/08 06:40:13;;;;;;;1.90;1.15;;;9.50;99.90;;;;;;5000985;28;20040;-63
2023/11/08 06:42:39;;;;;;;5.05;1.20;;;9.50;99.90;;;;;;5000636;28;20037;-63
2023/11/08 06:45:06;;;;;;;3.05;1.35;;;9.50;99.90;;;;;;5000823;28;20037;-61
2023/11/08 06:47:32;;;;;;;3.92;1.02;;;9.40;99.90;;;;;;5002108;28;20116;-63
2023/11/08 06:49:59;;;;;;;6.95;1.25;;;9.30;99.90;;;;;;5000521;28;20034;-63
2023/11/08 06:52:27;;;;;;;2.33;1.38;;;9.30;99.90;;;;;;5002125;28;20247;-63
2023/11/08 06:54:53;;;;;;;1.92;1.02;;;9.30;99.90;;;;;;4999474;28;20818;-63
2023/11/08 06:57:18;;;;;;;3.03;1.10;;;9.30;99.90;;;;;;4998759;28;20033;-63
2023/11/08 06:59:45;;;;;;;2.25;0.93;;;9.30;99.90;;;;;;4999972;28;20035;-63
2023/11/08 07:02:11;;;;;;;1.25;0.95;;;9.30;99.90;;;;;;4998853;28;20022;-63
2023/11/08 07:04:38;;;;;;;3.65;1.20;;;9.30;99.90;;;;;;5000576;28;20029;-63
2023/11/08 07:07:04;;;;;;;7.20;1.02;;;9.40;99.90;;;;;;4998440;28;20943;-63
2023/11/08 07:09:30;;;;;;;2.08;1.33;;;9.50;99.90;;;;;;5000473;28;20040;-63
2023/11/08 07:11:57;;;;;;;2.63;1.15;;;9.60;99.90;;;;;;4994774;28;20141;-63
2023/11/08 07:14:23;;;;;;;4.65;0.77;;;9.60;99.90;;;;;;5001690;28;20061;-63
2023/11/08 07:16:49;;;;;;;3.92;1.15;;;9.60;99.90;;;;;;4995313;28;20093;-62
2023/11/08 07:19:15;;;;;;;2.38;0.75;;;9.60;99.90;;;;;;5001735;28;20147;-63
2023/11/08 07:21:41;;;;;;;6.68;0.90;;;9.60;99.90;;;;;;4995017;28;20494;-63
2023/11/08 07:24:08;;;;;;;2.22;0.85;;;9.60;99.90;;;;;;5001176;28;20393;-63
2023/11/08 07:26:34;;;;;;;5.70;1.33;;;9.40;99.90;;;;;;4996346;28;20022;-64
2023/11/08 07:29:03;;;;;;;2.60;0.80;;;9.40;99.90;;;;;;5001595;28;20034;-63
2023/11/08 07:31:30;;;;;;;2.97;0.90;;;9.50;99.90;;;;;;5001507;28;20453;-64
2023/11/08 07:33:56;;;;;;;2.50;1.05;;;9.70;99.90;;;;;;4999665;28;20066;-63
2023/11/08 07:36:25;;;;;;;3.10;1.50;;;9.70;99.90;;;;;;4997761;28;20430;-63
2023/11/08 07:38:51;;;;;;;3.10;1.30;;;9.80;99.90;;;;;;4999138;28;20120;-63
2023/11/08 07:41:17;;;;;;;8.13;1.08;;;9.80;99.90;;;;;;4997754;28;20038;-63
2023/11/08 07:43:43;;;;;;;1.27;0.82;;;9.90;99.90;;;;;;4999491;28;20111;-63
2023/11/08 07:46:10;;;;;;;2.05;0.70;;;9.80;99.90;;;;;;4998767;28;20080;-64
2023/11/08 07:48:36;;;;;;;4.47;1.10;;;9.80;99.90;;;;;;5030073;28;20061;-64
2023/11/08 07:51:03;;;;;;;1.70;0.90;;;9.80;99.90;;;;;;4997564;28;20487;-63
2023/11/08 07:53:30;;;;;;;2.97;1.27;;;9.80;99.90;;;;;;4996406;28;20073;-64
2023/11/08 07:55:55;;;;;;;1.88;1.00;;;9.80;99.90;;;;;;4996881;28;20046;-64
2023/11/08 07:58:22;;;;;;;3.80;1.02;;;9.80;99.90;;;;;;4999696;28;20053;-64
2023/11/08 08:00:47;;;;;;;6.40;0.93;;;9.90;99.90;;;;;;4996961;28;20022;-63
2023/11/08 08:03:14;;;;;;;5.32;1.08;;;10.10;99.90;;;;;;4998831;28;20432;-64
2023/11/08 08:05:46;;;;;;;5.53;1.42;;;10.20;99.90;;;;;;4997924;28;20080;-63
2023/11/08 08:08:13;;;;;;;4.32;0.90;;;10.20;99.90;;;;;;4999653;28;20029;-63
2023/11/08 08:10:40;;;;;;;2.78;1.00;;;10.30;99.90;;;;;;4997781;28;20716;-63
2023/11/08 08:13:07;;;;;;;4.00;0.80;;;10.50;99.90;;;;;;4998774;28;20076;-64
2023/11/08 08:15:33;;;;;;;1.88;0.70;;;10.50;99.90;;;;;;4997426;28;20463;-63
2023/11/08 08:17:59;;;;;;;3.60;1.10;;;10.60;99.90;;;;;;4997435;28;20149;-63
2023/11/08 08:20:25;;;;;;;2.65;1.10;;;10.60;99.90;;;;;;4999716;28;20121;-63
2023/11/08 08:22:52;;;;;;;4.68;1.05;;;10.70;99.90;;;;;;4998531;28;20133;-63
2023/11/08 08:25:18;;;;;;;2.80;0.80;;;10.80;99.90;;;;;;4999950;28;20697;-63
2023/11/08 08:27:44;;;;;;;3.67;1.15;;;10.80;99.90;;;;;;4993565;28;20029;-63
2023/11/08 08:30:14;;;;;;;1.80;0.85;;;10.90;99.90;;;;;;4996293;28;20032;-63
2023/11/08 08:32:47;;;;;;;2.67;0.88;;;11.00;99.90;;;;;;4996783;28;20137;-63
2023/11/08 08:35:13;;;;;;;1.52;1.00;;;11.00;99.90;;;;;;4995421;28;20036;-63
2023/11/08 08:37:39;;;;;;;2.30;1.00;;;11.00;99.90;;;;;;4994536;28;20038;-63
2023/11/08 08:40:10;;;;;;;3.15;0.70;;;11.00;99.90;;;;;;5002150;28;20104;-63
2023/11/08 08:42:38;;;;;;;2.28;1.02;;;11.00;99.90;;;;;;4996910;28;20038;-63
2023/11/08 08:45:04;;;;;;;2.22;1.00;;;11.10;99.90;;;;;;5001000;28;20034;-63
2023/11/08 08:47:30;;;;;;;4.20;1.08;;;11.10;99.90;;;;;;4995358;28;20041;-63
2023/11/08 08:49:58;;;;;;;3.47;1.17;;;11.10;99.90;;;;;;4999735;28;20061;-63
2023/11/08 08:52:25;;;;;;;6.03;1.23;;;11.20;99.90;;;;;;4996208;28;20132;-64
2023/11/08 08:54:51;;;;;;;3.92;1.02;;;11.30;99.90;;;;;;4998883;28;20483;-63
2023/11/08 08:57:16;;;;;;;3.97;0.95;;;11.50;99.90;;;;;;4998148;28;20041;-63
2023/11/08 08:59:43;;;;;;;3.13;0.75;;;11.60;99.90;;;;;;4998354;28;20589;-63
2023/11/08 09:02:10;;;;;;;3.30;1.00;;;11.70;99.90;;;;;;4997925;28;20030;-63
2023/11/08 09:04:36;;;;;;;3.03;1.20;;;11.70;99.90;;;;;;5013370;28;20022;-63
2023/11/08 09:07:03;;;;;;;1.45;0.98;;;11.70;99.90;;;;;;4997484;28;20046;-63
2023/11/08 09:09:30;;;;;;;2.80;1.60;;;11.80;99.90;;;;;;4999947;28;20041;-63
2023/11/08 09:11:57;;;;;;;12.73;4.00;;;11.90;99.90;;;;;;4996081;28;20680;-63
2023/11/08 09:14:23;;;;;;;7.50;3.10;;;12.00;99.90;;;;;;4998967;28;20095;-63
2023/11/08 09:16:49;;;;;;;6.43;2.55;;;11.90;99.90;;;;;;4996974;28;20034;-63
2023/11/08 09:19:15;;;;;;;3.17;1.27;;;11.90;99.90;;;;;;4999098;28;20030;-63
2023/11/08 09:21:43;;;;;;;3.10;1.00;;;11.80;99.90;;;;;;4999558;28;20040;-63
2023/11/08 09:24:10;;;;;;;2.60;0.88;;;11.80;99.90;;;;;;4998945;28;20080;-64
2023/11/08 09:26:37;;;;;;;3.08;1.08;;;11.90;99.90;;;;;;4996315;28;20036;-63
2023/11/08 09:29:03;;;;;;;2.55;1.02;;;12.00;99.90;;;;;;5000077;28;20695;-63
2023/11/08 09:31:29;;;;;;;3.03;0.80;;;12.10;99.90;;;;;;5001055;28;20549;-64
2023/11/08 09:33:59;;;;;;;4.78;1.08;;;12.20;99.90;;;;;;5000449;28;20067;-65
2023/11/08 09:36:26;;;;;;;3.20;1.45;;;12.20;99.90;;;;;;4999605;28;20036;-64
2023/11/08 09:38:53;;;;;;;1.70;0.73;;;11.90;99.90;;;;;;4996968;28;20034;-64
2023/11/08 09:41:20;;;;;;;2.22;0.85;;;11.70;99.90;;;;;;5002123;28;20715;-63
2023/11/08 09:43:51;;;;;;;1.73;0.90;;;11.70;99.90;;;;;;4996473;28;20060;-64
2023/11/08 09:46:17;;;;;;;1.15;0.90;;;11.60;99.90;;;;;;5000685;28;20022;-63
2023/11/08 09:48:47;;;;;;;5.20;0.93;;;11.60;99.90;;;;;;4996719;28;20513;-63
2023/11/08 09:51:13;;;;;;;5.97;1.55;;;11.70;99.90;;;;;;5003983;28;20065;-63
2023/11/08 09:53:43;;;;;;;4.25;1.10;;;11.80;99.90;;;;;;4997360;28;20027;-64
2023/11/08 09:56:12;;;;;;;3.78;1.40;;;11.90;99.90;;;;;;5001507;28;20034;-63
2023/11/08 09:58:45;;;;;;;3.42;0.95;;;12.10;99.90;;;;;;4996081;28;20149;-63
2023/11/08 10:01:17;;;;;;;1.40;0.85;;;12.20;99.90;;;;;;5002191;28;20036;-65
2023/11/08 10:03:44;;;;;;;1.95;0.75;;;12.30;99.90;;;;;;4996517;28;20041;-64
2023/11/08 10:06:11;;;;;;;3.25;1.20;;;12.50;99.90;;;;;;5004074;28;20021;-64
2023/11/08 10:08:37;;;;;;;2.22;0.80;;;12.60;99.90;;;;;;5001158;28;20046;-64
2023/11/08 10:11:05;;;;;;;2.65;1.40;;;12.70;99.90;;;;;;5002718;28;20101;-64
2023/11/08 10:13:53;;;;;;;3.03;1.30;;;12.70;99.90;;;;;;4998573;28;20034;-64
2023/11/08 10:16:24;;;;;;;3.38;1.23;;;12.50;99.90;;;;;;5001273;28;20101;-63
2023/11/08 10:18:55;;;;;;;3.00;1.02;;;12.30;99.90;;;;;;4995739;28;20042;-64
2023/11/08 10:21:23;;;;;;;4.53;1.00;;;12.40;99.90;;;;;;5002137;28;20034;-64
2023/11/08 10:23:50;;;;;;;3.88;1.92;;;12.30;99.90;;;;;;4993593;28;20085;-64
2023/11/08 10:26:26;;;;;;;6.65;2.70;;;12.80;99.90;;;;;;5004447;28;20029;-64
2023/11/08 10:28:55;;;;;;;3.72;1.55;;;13.60;99.90;;;;;;4999905;28;20394;-62
2023/11/08 10:31:43;;;;;;;3.30;1.10;;;14.40;98.50;;;;;;5005093;28;20096;-64
2023/11/08 10:34:14;;;;;;;1.15;0.75;;;15.20;96.50;;;;;;5000031;28;20050;-64
2023/11/08 10:36:40;;;;;;;1.42;0.70;;;15.40;96.30;;;;;;5000423;28;20029;-64
2023/11/08 10:39:19;;;;;;;3.38;0.68;;;15.20;95.90;;;;;;4998985;28;20030;-64
2023/11/08 10:41:49;;;;;;;3.00;1.00;;;14.70;96.00;;;;;;5002158;28;20034;-64
2023/11/08 10:44:22;;;;;;;1.70;0.77;;;14.40;97.20;;;;;;4999185;28;20034;-64
2023/11/08 10:46:59;;;;;;;0.70;0.70;;;14.30;97.30;;;;;;5003113;28;20041;-65
2023/11/08 10:49:25;;;;;;;1.67;1.00;;;14.30;97.90;;;;;;4999740;28;20068;-62
2023/11/08 10:51:53;;;;;;;1.77;0.65;;;14.10;97.50;;;;;;5001449;28;20027;-63
2023/11/08 10:54:19;;;;;;;2.60;1.02;;;14.10;97.00;;;;;;4998854;28;20030;-64
2023/11/08 10:56:47;;;;;;;2.35;1.10;;;14.00;97.20;;;;;;5001469;28;20117;-64
2023/11/08 10:59:17;;;;;;;4.18;0.77;;;13.90;96.90;;;;;;4998431;28;20044;-64
2023/11/08 11:01:45;;;;;;;4.32;0.70;;;13.70;97.70;;;;;;5001412;28;20486;-64
2023/11/08 11:04:15;;;;;;;2.05;0.65;;;13.60;97.50;;;;;;4997742;28;20034;-63
2023/11/08 11:06:41;;;;;;;1.48;1.00;;;13.60;97.50;;;;;;4999903;28;20025;-63
2023/11/08 11:09:12;;;;;;;2.97;0.77;;;13.50;97.80;;;;;;4998409;28;20695;-63
2023/11/08 11:11:45;;;;;;;3.05;1.00;;;13.40;98.20;;;;;;4999704;28;20029;-63
2023/11/08 11:14:17;;;;;;;2.60;0.82;;;13.20;98.50;;;;;;4999251;28;20037;-63
2023/11/08 11:16:51;;;;;;;3.05;0.90;;;13.20;98.40;;;;;;5001056;28;20065;-63
2023/11/08 11:19:18;;;;;;;0.90;0.47;;;13.30;98.10;;;;;;5001400;28;20038;-63
2023/11/08 11:21:56;;;;;;;1.40;0.50;;;13.40;98.30;;;;;;5001553;28;20026;-63
2023/11/08 11:24:39;;;;;;;1.73;0.60;;;13.50;97.60;;;;;;5001586;28;20442;-63
2023/11/08 11:27:07;;;;;;;1.92;0.65;;;13.30;98.10;;;;;;5000785;28;20121;-63
2023/11/08 11:29:33;;;;;;;1.73;0.45;;;13.50;98.20;;;;;;5001647;28;20041;-66
2023/11/08 11:32:04;;;;;;;0.73;0.50;;;13.50;98.00;;;;;;5001767;28;20109;-66
2023/11/08 11:34:33;;;;;;;2.00;0.50;;;13.60;97.90;;;;;;4996991;28;20379;-63
2023/11/08 11:39:32;;;;;;;2.90;0.60;;;13.70;97.50;;;;;;4996936;28;20041;-63
2023/11/08 11:42:12;;;;;;;1.00;0.55;;;13.70;97.80;;;;;;5000558;28;20038;-62
2023/11/08 11:44:51;;;;;;;1.52;0.68;;;13.70;97.50;;;;;;4997058;28;20018;-64
2023/11/08 11:47:28;;;;;;;2.67;0.82;;;13.70;97.30;;;;;;4999744;28;20033;-64
2023/11/08 11:49:59;;;;;;;2.17;0.70;;;13.70;97.80;;;;;;4995359;28;20126;-63
2023/11/08 11:52:25;;;;;;;1.60;0.60;;;13.30;97.10;;;;;;5002347;28;20038;-64
2023/11/08 11:54:53;;;;;;;1.70;0.73;;;13.30;98.30;;;;;;4994479;28;20111;-64
2023/11/08 11:57:21;;;;;;;1.83;0.65;;;13.40;98.10;;;;;;5002483;28;20036;-64
2023/11/08 11:59:48;;;;;;;1.05;0.60;;;13.40;97.90;;;;;;4995518;28;20781;-64
2023/11/08 12:02:15;;;;;;;2.80;1.25;;;13.50;97.90;;;;;;4999929;28;20052;-63
2023/11/08 12:04:42;;;;;;;1.77;1.27;;;13.60;97.80;;;;;;4995724;28;20022;-63
2023/11/08 12:07:10;;;;;;;3.10;1.13;;;13.60;97.60;;;;;;5001680;28;20034;-63
2023/11/08 12:09:42;;;;;;;2.28;1.13;;;13.60;97.50;;;;;;4995821;28;20033;-63
2023/11/08 12:12:08;;;;;;;5.18;2.20;;;13.60;97.30;;;;;;5002109;28;20026;-63
2023/11/08 12:14:52;;;;;;;3.95;2.72;;;13.70;97.70;;;;;;4996481;28;20096;-63
2023/11/08 12:17:18;;;;;;;5.32;4.55;;;13.60;97.20;;;;;;5001817;28;20053;-63
2023/11/08 12:19:44;;;;;;;7.45;5.13;;;13.60;97.40;;;;;;4995240;28;20022;-63
2023/11/08 12:22:10;;;;;;;9.88;4.15;;;13.70;97.40;;;;;;5001319;28;20478;-63
2023/11/08 12:24:37;;;;;;;4.22;1.80;;;13.60;96.80;;;;;;4996365;28;20778;-63
2023/11/08 12:27:05;;;;;;;3.35;1.50;;;13.60;96.90;;;;;;5000797;28;20554;-63
2023/11/08 12:29:32;;;;;;;6.38;4.53;;;13.50;96.60;;;;;;4999805;28;20102;-63
2023/11/08 12:32:00;;;;;;;1.92;1.58;;;13.30;97.20;;;;;;5000821;28;20084;-63
2023/11/08 12:34:26;;;;;;;3.85;1.40;;;13.20;97.10;;;;;;4997769;28;21042;-63
2023/11/08 12:36:54;;;;;;;3.22;1.85;;;13.10;97.70;;;;;;4999084;28;20042;-63
2023/11/08 12:39:22;;;;;;;2.97;2.08;;;13.00;97.90;;;;;;4998837;28;20117;-63
2023/11/08 12:41:50;;;;;;;5.68;2.40;;;12.90;98.00;;;;;;4998768;28;20708;-63
2023/11/08 12:44:19;;;;;;;9.70;3.83;;;12.90;98.40;;;;;;4999142;28;20026;-63
2023/11/08 12:46:59;;;;;;;5.68;3.45;;;12.90;98.60;;;;;;4998692;28;20030;-63
2023/11/08 12:49:33;;;;;;;5.32;2.83;;;13.00;98.90;;;;;;5002857;28;20144;-63
2023/11/08 12:52:06;;;;;;;11.43;3.83;;;13.10;98.80;;;;;;4999731;28;20069;-63
2023/11/08 12:54:32;;;;;;;9.43;4.78;;;13.20;98.10;;;;;;4996497;28;20557;-63
2023/11/08 12:56:58;;;;;;;13.82;6.57;;;13.30;98.10;;;;;;4998653;28;20026;-62